Time;durP1;ratioP1;P1;durP2;ratioP2;P2;SDS_P1;SDS_P2;PMS_P1;PMS_P2;Temp;Humidity;BMP_temperature;BMP_pressure;BME280_temperature;BME280_humidity;BME280_pressure;Samples;Min_cycle;Max_cycle;Signal;HPM_P1;HPM_P2
2023/09/11 00:00:11;;;;;;;24.60;8.93;;;;;;;19.36;76.77;100290.41;4220202;28;21678;-67
2023/09/11 00:02:38;;;;;;;24.13;9.23;;;;;;;19.29;77.26;100272.03;4243449;28;20238;-69
2023/09/11 00:05:05;;;;;;;18.73;8.60;;;;;;;19.64;75.62;100282.81;4235355;28;20231;-67
2023/09/11 00:07:32;;;;;;;16.10;8.83;;;;;;;19.52;75.95;100290.00;4217879;28;20240;-69
2023/09/11 00:09:58;;;;;;;20.83;9.27;;;;;;;19.50;75.91;100286.63;4215504;28;20231;-70
2023/09/11 00:12:25;;;;;;;21.30;9.47;;;;;;;19.34;76.66;100279.63;4230548;28;21371;-68
2023/09/11 00:14:51;;;;;;;21.63;9.33;;;;;;;19.44;76.76;100279.22;4209968;28;20235;-67
2023/09/11 00:17:18;;;;;;;21.43;9.37;;;;;;;19.40;76.53;100283.44;4219124;28;21052;-67
2023/09/11 00:19:45;;;;;;;23.73;8.80;;;;;;;19.35;76.62;100273.09;4221480;28;20602;-67
2023/09/11 00:22:11;;;;;;;27.37;10.20;;;;;;;19.24;77.22;100276.47;4232493;28;20368;-66
2023/09/11 00:24:38;;;;;;;21.27;8.97;;;;;;;19.33;76.74;100272.47;4231706;28;21190;-68
2023/09/11 00:27:04;;;;;;;26.40;9.93;;;;;;;19.36;76.96;100260.22;4214891;28;20231;-68
2023/09/11 00:29:31;;;;;;;20.73;9.30;;;;;;;19.46;76.38;100264.25;4229198;28;20237;-68
2023/09/11 00:31:58;;;;;;;17.77;8.50;;;;;;;19.43;76.56;100264.66;4220190;28;20270;-68
2023/09/11 00:34:24;;;;;;;18.93;9.47;;;;;;;19.30;76.90;100256.41;4216938;28;20295;-67
2023/09/11 00:36:51;;;;;;;19.23;8.97;;;;;;;19.10;77.93;100261.84;4220642;28;20643;-69
2023/09/11 00:39:18;;;;;;;18.53;9.43;;;;;;;19.21;77.47;100260.41;4240335;28;20236;-67
2023/09/11 00:41:45;;;;;;;21.40;9.27;;;;;;;19.25;77.29;100257.03;4211672;28;20233;-66
2023/09/11 00:44:11;;;;;;;20.57;8.97;;;;;;;19.23;77.14;100252.81;4218539;28;20350;-67
2023/09/11 00:46:39;;;;;;;24.40;9.20;;;;;;;19.21;77.52;100257.66;4227732;28;20288;-67
2023/09/11 00:49:06;;;;;;;21.97;8.93;;;;;;;19.07;77.98;100254.06;4231611;28;20242;-66
2023/09/11 00:51:34;;;;;;;24.67;9.80;;;;;;;19.06;77.95;100247.72;4223825;28;20294;-68
2023/09/11 00:54:01;;;;;;;18.53;9.83;;;;;;;19.08;78.05;100248.34;4224311;28;21735;-67
2023/09/11 00:56:28;;;;;;;17.83;8.67;;;;;;;19.04;77.69;100249.81;4226061;28;20421;-67
2023/09/11 00:58:55;;;;;;;24.17;9.47;;;;;;;19.04;78.19;100249.81;4218930;28;23490;-66
2023/09/11 01:01:23;;;;;;;23.13;9.43;;;;;;;19.03;78.27;100247.28;4217112;28;20236;-67
2023/09/11 01:03:50;;;;;;;21.30;9.33;;;;;;;19.02;78.17;100248.34;4219241;28;20236;-67
2023/09/11 01:06:17;;;;;;;19.50;9.10;;;;;;;19.00;78.42;100243.91;4215349;28;20354;-67
2023/09/11 01:08:43;;;;;;;17.67;8.77;;;;;;;18.86;79.03;100247.63;4222572;28;21808;-69
2023/09/11 01:11:10;;;;;;;25.80;10.03;;;;;;;18.78;79.25;100243.19;4222338;28;22747;-66
2023/09/11 01:13:37;;;;;;;26.17;9.67;;;;;;;18.76;79.32;100236.22;4224446;28;20239;-66
2023/09/11 01:16:21;;;;;;;22.83;9.27;;;;;;;18.80;79.42;100237.50;4217439;28;20271;-66
2023/09/11 01:18:59;;;;;;;19.37;9.93;;;;;;;18.71;79.81;100235.97;4227921;28;21167;-67
2023/09/11 01:21:45;;;;;;;22.37;9.50;;;;;;;18.78;79.50;100234.09;4219997;28;20236;-70
2023/09/11 01:24:31;;;;;;;28.20;10.00;;;;;;;18.61;80.18;100231.75;4217379;28;21469;-66
2023/09/11 01:27:12;;;;;;;22.77;10.07;;;;;;;18.59;80.15;100236.59;4227183;28;20236;-67
2023/09/11 01:29:40;;;;;;;18.37;9.63;;;;;;;18.65;80.20;100229.44;4249443;28;21145;-68
2023/09/11 01:32:08;;;;;;;20.77;9.60;;;;;;;18.66;79.83;100234.72;4213116;28;20227;-70
2023/09/11 01:34:35;;;;;;;25.90;9.83;;;;;;;18.35;81.23;100232.50;4213706;28;20293;-66
2023/09/11 01:37:01;;;;;;;17.63;9.33;;;;;;;18.31;81.71;100229.31;4220193;28;20282;-68
2023/09/11 01:39:28;;;;;;;23.77;10.60;;;;;;;18.40;81.13;100232.72;4216138;28;21684;-67
2023/09/11 01:42:00;;;;;;;24.07;10.00;;;;;;;18.34;81.48;100226.16;4221629;28;20274;-68
2023/09/11 01:44:37;;;;;;;15.07;9.27;;;;;;;18.35;81.58;100227.84;4229529;28;20230;-67
2023/09/11 01:47:07;;;;;;;16.87;9.30;;;;;;;18.28;81.96;100221.50;4218386;28;20232;-67
2023/09/11 01:49:37;;;;;;;17.13;8.70;;;;;;;18.42;81.36;100216.06;4226195;28;20235;-66
2023/09/11 01:52:06;;;;;;;23.40;10.27;;;;;;;18.33;81.72;100215.41;4225619;28;20349;-68
2023/09/11 01:54:35;;;;;;;22.43;9.63;;;;;;;18.33;81.83;100209.94;4228573;28;21579;-69
2023/09/11 01:57:04;;;;;;;22.50;9.87;;;;;;;18.38;81.52;100207.41;4215449;28;20310;-68
2023/09/11 01:59:32;;;;;;;22.20;10.00;;;;;;;18.34;81.56;100208.88;4223699;28;26444;-67
2023/09/11 02:01:59;;;;;;;24.83;9.40;;;;;;;18.26;81.88;100211.78;4222277;28;20235;-68
2023/09/11 02:04:25;;;;;;;21.50;9.40;;;;;;;18.22;82.18;100205.88;4217730;28;20232;-68
2023/09/11 02:06:52;;;;;;;23.60;9.87;;;;;;;18.19;82.28;100207.13;4215975;28;22608;-68
2023/09/11 02:09:18;;;;;;;24.63;9.80;;;;;;;18.23;82.28;100206.72;4224739;28;20231;-67
2023/09/11 02:11:45;;;;;;;28.23;9.73;;;;;;;18.10;82.91;100207.47;4217477;28;20245;-68
2023/09/11 02:14:11;;;;;;;22.00;9.50;;;;;;;18.24;82.32;100206.50;4218971;28;20321;-67
2023/09/11 02:16:38;;;;;;;22.03;10.43;;;;;;;18.19;82.30;100209.88;4225413;28;24872;-67
2023/09/11 02:19:05;;;;;;;23.00;9.97;;;;;;;18.23;82.19;100207.56;4218662;28;20823;-67
2023/09/11 02:21:31;;;;;;;19.33;10.40;;;;;;;18.10;82.53;100213.81;4213262;28;21581;-66
2023/09/11 02:23:58;;;;;;;23.37;10.27;;;;;;;18.08;82.79;100206.84;4216494;28;20300;-67
2023/09/11 02:26:25;;;;;;;22.37;9.73;;;;;;;18.11;83.09;100206.44;4224365;28;20366;-66
2023/09/11 02:28:52;;;;;;;23.80;10.10;;;;;;;18.01;82.67;100207.63;4219300;28;21312;-68
2023/09/11 02:31:18;;;;;;;22.67;10.50;;;;;;;17.92;83.69;100197.03;4213660;28;20239;-69
2023/09/11 02:33:46;;;;;;;26.20;10.00;;;;;;;17.86;83.98;100209.66;4220998;28;20356;-65
2023/09/11 02:36:12;;;;;;;22.97;10.03;;;;;;;18.01;83.29;100204.91;4217403;28;22441;-66
2023/09/11 02:38:39;;;;;;;30.43;10.87;;;;;;;17.87;83.76;100206.72;4217752;28;20387;-70
2023/09/11 02:41:06;;;;;;;23.00;10.43;;;;;;;17.75;84.26;100205.56;4234293;28;21542;-67
2023/09/11 02:43:35;;;;;;;24.97;10.00;;;;;;;17.99;83.44;100203.41;4215505;28;20367;-68
2023/09/11 02:46:03;;;;;;;19.73;10.20;;;;;;;17.78;nan;100209.81;4215401;28;20688;-68
2023/09/11 02:48:31;;;;;;;21.00;10.47;;;;;;;17.72;84.79;100209.53;4235296;28;21380;-67
2023/09/11 02:50:58;;;;;;;22.83;10.77;;;;;;;17.73;84.55;100204.94;4229519;28;20275;-67
2023/09/11 02:53:25;;;;;;;26.50;13.27;;;;;;;17.69;84.98;100207.22;4223100;28;20236;-68
2023/09/11 02:55:51;;;;;;;24.80;11.00;;;;;;;17.66;84.93;100204.88;4213767;28;20567;-67
2023/09/11 02:58:18;;;;;;;28.97;10.80;;;;;;;17.72;84.84;100204.06;4222127;28;20306;-67
2023/09/11 03:00:45;;;;;;;21.13;10.17;;;;;;;17.63;85.15;100197.09;4222658;28;21803;-67
2023/09/11 03:03:11;;;;;;;27.67;12.27;;;;;;;17.46;86.14;100201.16;4229601;28;21741;-68
2023/09/11 03:05:38;;;;;;;24.47;11.03;;;;;;;17.47;86.08;100200.13;4226551;28;20235;-67
2023/09/11 03:08:06;;;;;;;28.57;11.80;;;;;;;17.43;86.50;100196.94;4242067;28;20231;-68
2023/09/11 03:10:32;;;;;;;26.73;11.97;;;;;;;17.37;86.60;100197.72;4220927;28;20358;-67
2023/09/11 03:12:59;;;;;;;17.83;11.33;;;;;;;17.51;86.03;100196.78;4224218;28;20297;-68
2023/09/11 03:15:30;;;;;;;22.87;10.97;;;;;;;17.40;86.46;100195.44;4224194;28;20231;-69
2023/09/11 03:17:56;;;;;;;22.23;10.83;;;;;;;17.45;86.26;100193.97;4222844;28;20294;-66
2023/09/11 03:20:23;;;;;;;27.00;11.43;;;;;;;17.37;87.25;100184.88;4226247;28;20244;-70
2023/09/11 03:22:50;;;;;;;25.30;11.33;;;;;;;17.40;86.69;100189.09;4220408;28;20232;-67
2023/09/11 03:25:16;;;;;;;24.70;11.47;;;;;;;17.29;87.25;100181.44;4222023;28;20240;-68
2023/09/11 03:27:44;;;;;;;22.10;12.20;;;;;;;17.17;87.97;100184.72;4219432;28;20351;-67
2023/09/11 03:30:11;;;;;;;24.50;11.87;;;;;;;17.20;88.21;100184.31;4232052;28;20329;-69
2023/09/11 03:32:38;;;;;;;24.73;11.83;;;;;;;17.26;87.41;100171.72;4236255;28;20746;-67
2023/09/11 03:35:05;;;;;;;23.33;11.33;;;;;;;17.22;87.66;100173.19;4220184;28;20297;-67
2023/09/11 03:37:32;;;;;;;20.07;10.93;;;;;;;17.31;87.34;100180.22;4226145;28;20231;-68
2023/09/11 03:39:59;;;;;;;22.33;11.50;;;;;;;17.41;86.68;100174.38;4232026;28;23601;-68
2023/09/11 03:42:26;;;;;;;30.33;11.37;;;;;;;17.52;86.02;100175.72;4222875;28;23240;-67
2023/09/11 03:44:53;;;;;;;24.50;11.90;;;;;;;17.48;85.87;100177.19;4236085;28;20694;-68
2023/09/11 03:47:19;;;;;;;23.67;11.23;;;;;;;17.35;86.61;100184.22;4228479;28;23395;-68
2023/09/11 03:49:46;;;;;;;20.03;11.83;;;;;;;17.20;87.27;100170.66;4217131;28;20267;-66
2023/09/11 03:52:13;;;;;;;30.20;12.13;;;;;;;17.17;88.06;100173.75;4222334;28;21524;-67
2023/09/11 03:54:40;;;;;;;28.67;12.50;;;;;;;17.31;86.94;100179.34;4219842;28;20727;-68
2023/09/11 03:57:06;;;;;;;22.87;11.87;;;;;;;17.28;87.20;100172.38;4239341;28;20242;-68
2023/09/11 03:59:33;;;;;;;29.77;12.37;;;;;;;17.14;87.92;100176.91;4232696;28;20247;-65
2023/09/11 04:02:00;;;;;;;22.37;11.57;;;;;;;17.14;88.19;100178.78;4214275;28;20234;-66
2023/09/11 04:04:27;;;;;;;26.20;11.93;;;;;;;17.14;87.93;100167.84;4222666;28;20248;-68
2023/09/11 04:06:54;;;;;;;26.37;12.33;;;;;;;17.19;87.80;100168.09;4221431;28;21805;-66
2023/09/11 04:09:21;;;;;;;24.67;12.10;;;;;;;17.30;86.82;100163.97;4218483;28;21182;-66
2023/09/11 04:11:48;;;;;;;25.13;11.97;;;;;;;17.14;87.60;100170.59;4218534;28;22209;-68
2023/09/11 04:14:14;;;;;;;30.47;12.20;;;;;;;17.10;87.72;100165.53;4234918;28;20237;-67
2023/09/11 04:16:42;;;;;;;22.83;12.10;;;;;;;17.10;87.93;100165.53;4231048;28;20234;-68
2023/09/11 04:19:08;;;;;;;26.90;12.17;;;;;;;17.26;87.08;100160.78;4216961;28;21493;-67
2023/09/11 04:21:35;;;;;;;24.23;12.30;;;;;;;17.27;86.96;100165.22;4256455;28;22421;-69
2023/09/11 04:24:02;;;;;;;42.43;12.97;;;;;;;17.23;86.94;100162.03;4230983;28;21048;-66
2023/09/11 04:26:29;;;;;;;22.87;11.87;;;;;;;17.20;87.15;100165.19;4238493;28;20743;-69
2023/09/11 04:28:56;;;;;;;26.83;12.23;;;;;;;17.25;87.17;100168.16;4235251;28;20334;-68
2023/09/11 04:31:23;;;;;;;24.43;12.50;;;;;;;17.24;86.85;100163.72;4256475;28;20298;-69
2023/09/11 04:33:50;;;;;;;27.07;12.47;;;;;;;17.23;86.96;100164.75;4228021;28;21940;-68
2023/09/11 04:36:17;;;;;;;24.07;12.40;;;;;;;17.28;86.50;100161.44;4228189;28;21653;-68
2023/09/11 04:38:43;;;;;;;27.30;12.63;;;;;;;17.24;86.73;100158.25;4221683;28;20230;-67
2023/09/11 04:41:10;;;;;;;26.63;12.07;;;;;;;17.28;86.64;100164.19;4230287;28;20240;-68
2023/09/11 04:43:37;;;;;;;21.03;12.20;;;;;;;17.24;86.71;100155.53;4219817;28;21125;-68
2023/09/11 04:46:04;;;;;;;28.17;12.83;;;;;;;17.29;86.60;100162.31;4222788;28;20235;-67
2023/09/11 04:48:30;;;;;;;22.90;13.10;;;;;;;17.41;85.59;100157.97;4229785;28;20275;-68
2023/09/11 04:50:57;;;;;;;34.13;14.20;;;;;;;17.34;86.11;100162.53;4214907;28;20728;-68
2023/09/11 04:53:24;;;;;;;25.00;12.50;;;;;;;17.39;86.09;100160.91;4225156;28;23122;-68
2023/09/11 04:55:51;;;;;;;29.67;13.13;;;;;;;17.34;86.29;100157.06;4237820;28;20235;-66
2023/09/11 04:58:18;;;;;;;24.20;13.20;;;;;;;17.32;86.41;100156.41;4220042;28;20236;-67
2023/09/11 05:00:45;;;;;;;33.47;13.87;;;;;;;17.31;86.54;100150.13;4209853;28;20247;-67
2023/09/11 05:03:11;;;;;;;41.70;14.50;;;;;;;17.40;86.01;100153.53;4238781;28;20246;-68
2023/09/11 05:05:40;;;;;;;28.50;13.07;;;;;;;17.44;85.97;100152.09;4221479;28;22682;-67
2023/09/11 05:08:07;;;;;;;29.20;13.30;;;;;;;17.53;84.76;100155.53;4240627;28;21105;-66
2023/09/11 05:10:39;;;;;;;28.50;13.10;;;;;;;17.57;84.81;100163.13;4225077;28;20246;-68
2023/09/11 05:13:05;;;;;;;28.17;12.97;;;;;;;17.59;85.12;100160.19;4258452;28;20242;-69
2023/09/11 05:15:32;;;;;;;31.87;14.30;;;;;;;17.64;84.72;100152.22;4224894;28;20231;-70
2023/09/11 05:17:59;;;;;;;25.80;13.37;;;;;;;17.71;84.62;100157.75;4220610;28;20258;-70
2023/09/11 05:20:26;;;;;;;30.40;12.00;;;;;;;17.68;85.06;100150.78;4239987;28;21797;-67
2023/09/11 05:22:53;;;;;;;27.57;13.00;;;;;;;17.69;84.60;100157.94;4214229;28;20245;-68
2023/09/11 05:25:21;;;;;;;24.10;13.37;;;;;;;17.80;84.41;100151.06;4222424;28;26803;-69
2023/09/11 05:27:48;;;;;;;25.43;13.00;;;;;;;17.79;84.32;100156.75;4220770;28;20235;-69
2023/09/11 05:30:15;;;;;;;26.67;13.73;;;;;;;17.78;84.40;100152.31;4220510;28;20618;-68
2023/09/11 05:32:41;;;;;;;29.77;13.67;;;;;;;17.83;84.30;100144.31;4224639;28;20236;-69
2023/09/11 05:35:08;;;;;;;26.33;12.03;;;;;;;18.04;83.24;100157.13;4212266;28;20235;-68
2023/09/11 05:37:35;;;;;;;23.67;12.67;;;;;;;18.13;82.29;100155.03;4229912;28;21253;-69
2023/09/11 05:40:02;;;;;;;27.03;12.73;;;;;;;18.25;81.64;100156.13;4232470;28;20238;-69
2023/09/11 05:42:29;;;;;;;25.67;12.57;;;;;;;18.33;81.43;100157.84;4214187;28;20231;-69
2023/09/11 05:44:56;;;;;;;22.83;11.73;;;;;;;18.38;81.39;100149.84;4227039;28;20454;-69
2023/09/11 05:47:23;;;;;;;34.93;13.90;;;;;;;18.44;81.05;100154.50;4222124;28;20240;-68
2023/09/11 05:49:50;;;;;;;27.30;13.17;;;;;;;18.47;81.12;100155.97;4217462;28;20308;-68
2023/09/11 05:52:16;;;;;;;31.03;11.93;;;;;;;18.63;79.94;100157.53;4229675;28;21820;-70
2023/09/11 05:54:43;;;;;;;33.07;12.90;;;;;;;18.76;79.53;100148.47;4232713;28;20603;-68
2023/09/11 05:57:10;;;;;;;23.40;12.23;;;;;;;18.78;79.44;100152.69;4236882;28;21455;-69
2023/09/11 05:59:37;;;;;;;24.10;11.50;;;;;;;18.92;78.71;100160.97;4223533;28;20239;-68
2023/09/11 06:02:04;;;;;;;30.43;12.50;;;;;;;19.08;78.20;100157.81;4240201;28;20236;-71
2023/09/11 06:04:31;;;;;;;30.03;12.03;;;;;;;19.12;77.32;100150.84;4236093;28;20405;-70
2023/09/11 06:06:58;;;;;;;27.23;11.37;;;;;;;19.00;78.01;100153.38;4225773;28;20412;-71
2023/09/11 06:09:24;;;;;;;33.87;12.53;;;;;;;19.09;77.48;100156.78;4249669;28;21143;-69
2023/09/11 06:11:52;;;;;;;31.50;12.90;;;;;;;19.08;78.16;100156.97;4217981;28;20568;-69
2023/09/11 06:14:19;;;;;;;29.37;12.20;;;;;;;19.13;78.19;100158.03;4220100;28;20432;-69
2023/09/11 06:16:46;;;;;;;31.90;12.37;;;;;;;19.23;77.29;100157.59;4228029;28;21220;-69
2023/09/11 06:19:13;;;;;;;28.03;11.87;;;;;;;19.32;77.42;100155.50;4221434;28;21083;-69
2023/09/11 06:21:44;;;;;;;27.63;12.37;;;;;;;19.44;76.35;100156.53;4233077;28;21114;-64
2023/09/11 06:24:11;;;;;;;36.77;13.40;;;;;;;19.59;76.18;100159.06;4231911;28;21876;-68
2023/09/11 06:26:41;;;;;;;24.50;11.93;;;;;;;19.86;75.08;100148.03;4231037;28;20342;-67
2023/09/11 06:29:08;;;;;;;29.70;12.47;;;;;;;20.00;74.17;100153.47;4232875;28;20412;-68
2023/09/11 06:31:35;;;;;;;35.77;11.70;;;;;;;19.99;73.94;100147.16;4230721;28;20258;-67
2023/09/11 06:34:02;;;;;;;26.90;11.57;;;;;;;19.98;74.19;100152.88;4225686;28;20418;-69
2023/09/11 06:36:28;;;;;;;25.83;11.17;;;;;;;20.21;72.93;100141.34;4221563;28;20243;-69
2023/09/11 06:38:55;;;;;;;34.27;12.23;;;;;;;20.28;72.94;100150.41;4242960;28;23146;-66
2023/09/11 06:41:22;;;;;;;28.30;11.20;;;;;;;20.42;72.40;100145.69;4198258;28;20458;-68
2023/09/11 06:43:48;;;;;;;25.07;10.47;;;;;;;20.58;71.82;100150.66;4244876;28;20234;-68
2023/09/11 06:46:16;;;;;;;24.63;10.73;;;;;;;20.84;70.26;100154.34;4228838;28;20833;-68
2023/09/11 06:48:42;;;;;;;19.27;10.07;;;;;;;21.04;69.68;100156.94;4219727;28;20311;-70
2023/09/11 06:51:10;;;;;;;27.27;10.73;;;;;;;21.11;67.63;100159.63;4249988;28;20223;-69
2023/09/11 06:53:36;;;;;;;22.03;10.43;;;;;;;21.16;67.90;100161.72;4223779;28;20246;-69
2023/09/11 06:56:07;;;;;;;21.67;9.80;;;;;;;21.41;66.18;100153.47;4258504;28;21615;-67
2023/09/11 06:58:33;;;;;;;24.00;10.17;;;;;;;21.32;66.36;100146.56;4250278;28;20230;-69
2023/09/11 07:01:01;;;;;;;20.97;10.00;;;;;;;21.84;64.98;100154.53;4227627;28;21498;-70
2023/09/11 07:03:28;;;;;;;21.17;10.03;;;;;;;22.03;64.66;100151.78;4253286;28;21746;-69
2023/09/11 07:05:55;;;;;;;28.00;9.63;;;;;;;24.16;58.04;100157.75;4283789;28;21690;-69
2023/09/11 07:08:22;;;;;;;27.67;10.00;;;;;;;26.12;51.42;100154.69;4330147;28;20472;-67
2023/09/11 07:10:50;;;;;;;25.40;9.70;;;;;;;27.46;47.59;100149.66;4320357;28;20235;-68
2023/09/11 07:13:17;;;;;;;19.70;8.97;;;;;;;28.90;45.28;100149.44;4284212;28;23406;-69
2023/09/11 07:15:53;;;;;;;30.10;9.77;;;;;;;30.87;40.35;100153.38;4257045;28;20732;-68
2023/09/11 07:18:25;;;;;;;26.52;8.88;;;;;;;32.16;36.84;100159.72;4265096;28;20231;-73
2023/09/11 07:20:53;;;;;;;21.25;7.88;;;;;;;33.25;35.57;100148.59;4291981;28;20313;-71
2023/09/11 07:23:23;;;;;;;25.92;9.43;;;;;;;34.18;34.00;100151.66;4261724;28;22272;-69
2023/09/11 07:25:51;;;;;;;25.77;8.93;;;;;;;34.82;32.38;100156.41;4312589;28;23697;-68
2023/09/11 07:28:17;;;;;;;23.20;8.65;;;;;;;35.46;31.02;100149.81;4245533;28;20248;-67
2023/09/11 07:30:44;;;;;;;23.15;8.50;;;;;;;36.42;28.83;100152.19;4247435;28;20410;-68
2023/09/11 07:33:11;;;;;;;17.55;7.60;;;;;;;37.78;27.88;100147.38;4260254;28;20609;-68
2023/09/11 07:35:38;;;;;;;22.63;8.50;;;;;;;38.71;26.24;100147.53;4247132;28;20231;-68
2023/09/11 07:38:07;;;;;;;18.90;7.28;;;;;;;38.38;26.39;100150.25;4236728;28;21251;-70
2023/09/11 07:40:38;;;;;;;21.80;7.88;;;;;;;38.74;25.92;100140.34;4232543;28;25809;-67
2023/09/11 07:43:05;;;;;;;25.10;8.07;;;;;;;39.32;25.23;100143.31;4233171;28;25569;-68
2023/09/11 07:45:32;;;;;;;21.77;8.40;;;;;;;38.61;26.02;100142.28;4237295;28;21722;-68
2023/09/11 07:47:58;;;;;;;21.77;9.07;;;;;;;38.68;26.04;100140.53;4230515;28;21808;-70
2023/09/11 07:50:25;;;;;;;27.63;8.40;;;;;;;38.96;25.74;100136.31;4243081;28;20421;-69
2023/09/11 07:52:52;;;;;;;30.48;9.50;;;;;;;37.34;27.49;100136.22;4248164;28;20235;-70
2023/09/11 07:55:19;;;;;;;18.80;7.97;;;;;;;36.24;29.02;100140.84;4237634;28;20236;-67
2023/09/11 07:57:52;;;;;;;22.15;8.30;;;;;;;35.24;29.95;100140.19;4242453;28;22057;-69
2023/09/11 08:00:19;;;;;;;26.83;7.75;;;;;;;38.29;26.32;100137.00;4218119;28;20664;-69
2023/09/11 08:02:48;;;;;;;34.08;12.52;;;;;;;38.43;25.92;100138.75;4244347;28;20223;-70
2023/09/11 08:05:15;;;;;;;28.98;8.50;;;;;;;36.41;28.53;100140.06;4282639;28;20231;-70
2023/09/11 08:07:42;;;;;;;20.90;7.78;;;;;;;36.78;28.21;100145.41;4280474;28;20427;-68
2023/09/11 08:10:08;;;;;;;26.20;8.57;;;;;;;35.43;30.14;100139.19;4243040;28;20231;-71
2023/09/11 08:12:35;;;;;;;22.10;7.93;;;;;;;37.94;27.08;100142.84;4273211;28;20866;-71
2023/09/11 08:15:02;;;;;;;29.60;8.68;;;;;;;38.58;25.50;100140.13;4251537;28;20619;-70
2023/09/11 08:17:29;;;;;;;27.10;8.23;;;;;;;37.74;26.64;100139.59;4283368;28;20242;-70
2023/09/11 08:19:57;;;;;;;25.88;7.78;;;;;;;35.37;29.59;100132.84;4268009;28;21644;-71
2023/09/11 08:22:24;;;;;;;27.60;8.53;;;;;;;34.13;31.73;100128.16;4268913;28;22355;-72
2023/09/11 08:24:51;;;;;;;20.55;7.60;;;;;;;33.96;31.67;100131.59;4264246;28;20235;-71
2023/09/11 08:27:18;;;;;;;21.98;8.05;;;;;;;33.23;33.37;100127.59;4247636;28;20663;-75
2023/09/11 08:29:44;;;;;;;26.17;8.15;;;;;;;32.21;35.17;100135.31;4271302;28;20605;-74
2023/09/11 08:32:11;;;;;;;19.90;7.72;;;;;;;32.17;35.18;100131.41;4249408;28;20483;-72
2023/09/11 08:34:38;;;;;;;22.08;7.68;;;;;;;32.06;35.25;100132.69;4257842;28;20230;-69
2023/09/11 08:37:05;;;;;;;21.42;7.97;;;;;;;32.28;35.27;100132.13;4265746;28;20230;-68
2023/09/11 08:39:31;;;;;;;26.38;7.28;;;;;;;31.49;37.10;100130.50;4249724;28;20235;-75
2023/09/11 08:42:00;;;;;;;31.50;7.85;;;;;;;31.31;36.51;100126.47;4247882;28;20301;-71
2023/09/11 08:44:27;;;;;;;28.52;7.95;;;;;;;30.95;37.59;100132.38;4263609;28;20454;-68
2023/09/11 08:46:56;;;;;;;15.80;7.05;;;;;;;31.99;35.95;100126.63;4271152;28;20424;-69
2023/09/11 08:49:30;;;;;;;30.80;8.27;;;;;;;31.69;36.36;100125.81;4239043;28;20267;-70
2023/09/11 08:51:59;;;;;;;21.73;7.65;;;;;;;32.04;35.38;100124.56;4233027;28;20232;-70
2023/09/11 08:54:32;;;;;;;20.30;7.43;;;;;;;31.80;35.89;100134.97;4235678;28;20557;-70
2023/09/11 08:56:59;;;;;;;17.40;7.53;;;;;;;30.89;37.68;100131.56;4278886;28;20238;-72
2023/09/11 08:59:28;;;;;;;16.92;7.65;;;;;;;30.92;38.36;100125.41;4244402;28;20826;-70
2023/09/11 09:01:57;;;;;;;17.80;7.03;;;;;;;30.92;38.36;100122.59;4244747;28;21620;-71
2023/09/11 09:04:25;;;;;;;19.52;7.00;;;;;;;31.12;37.65;100121.59;4263311;28;20238;-72
2023/09/11 09:06:53;;;;;;;20.33;7.13;;;;;;;31.09;37.28;100127.81;4273734;28;24237;-69
2023/09/11 09:09:21;;;;;;;22.55;8.00;;;;;;;30.67;38.50;100124.47;4276685;28;21859;-71
2023/09/11 09:11:49;;;;;;;23.13;7.47;;;;;;;31.28;37.11;100129.84;4267694;28;25972;-71
2023/09/11 09:14:21;;;;;;;21.42;7.43;;;;;;;31.19;36.84;100123.25;4310413;28;20238;-69
2023/09/11 09:16:48;;;;;;;16.88;6.70;;;;;;;30.56;39.00;100113.66;4305894;28;20262;-71
2023/09/11 09:19:15;;;;;;;13.48;6.68;;;;;;;30.45;39.71;100122.03;4265817;28;20237;-69
2023/09/11 09:22:07;;;;;;;17.60;7.25;;;;;;;30.95;37.45;100118.38;4273119;28;20236;-69
2023/09/11 09:24:35;;;;;;;18.33;6.60;;;;;;;31.22;36.97;100120.69;4278057;28;20271;-69
2023/09/11 09:27:04;;;;;;;17.70;6.57;;;;;;;30.59;38.17;100116.69;4232055;28;20240;-72
2023/09/11 09:29:38;;;;;;;23.48;7.35;;;;;;;30.03;38.79;100110.25;4263756;28;23074;-72
2023/09/11 09:32:07;;;;;;;14.45;7.32;;;;;;;30.17;38.80;100115.25;4263458;28;25580;-70
2023/09/11 09:34:36;;;;;;;16.42;7.13;;;;;;;30.44;38.10;100113.97;4255027;28;20235;-72
2023/09/11 09:37:03;;;;;;;15.57;6.72;;;;;;;30.33;38.77;100108.44;4241525;28;21922;-68
2023/09/11 09:39:33;;;;;;;20.60;7.18;;;;;;;30.12;39.66;100104.09;4242251;28;20375;-70
2023/09/11 09:42:02;;;;;;;13.07;6.82;;;;;;;29.99;39.92;100102.75;4242882;28;25655;-68
2023/09/11 09:44:37;;;;;;;14.75;6.93;;;;;;;29.63;41.00;100097.28;4243031;28;20239;-70
2023/09/11 09:47:13;;;;;;;23.42;7.85;;;;;;;29.44;42.19;100097.03;4242109;28;20260;-69
2023/09/11 09:49:57;;;;;;;16.95;7.30;;;;;;;29.07;41.98;100097.06;4263744;28;20245;-71
2023/09/11 09:52:29;;;;;;;17.35;7.13;;;;;;;28.89;42.74;100100.44;4237035;28;20982;-71
2023/09/11 09:54:58;;;;;;;13.63;6.75;;;;;;;28.05;45.02;100098.53;4231900;28;20265;-71
2023/09/11 09:57:27;;;;;;;24.58;10.48;;;;;;;27.97;45.40;100099.88;4229979;28;22348;-70
2023/09/11 09:59:57;;;;;;;15.68;7.15;;;;;;;27.83;45.84;100091.19;4256557;28;20482;-70
2023/09/11 10:02:32;;;;;;;19.52;7.72;;;;;;;27.77;45.48;100095.06;4238830;28;20262;-71
2023/09/11 10:05:08;;;;;;;18.58;7.68;;;;;;;27.62;45.67;100092.22;4245907;28;20451;-68
2023/09/11 10:07:39;;;;;;;12.40;6.57;;;;;;;28.30;42.44;100089.47;4240619;28;21057;-72
2023/09/11 10:10:24;;;;;;;18.27;7.38;;;;;;;28.08;44.41;100078.53;4253398;28;20677;-71
2023/09/11 10:13:00;;;;;;;17.33;6.80;;;;;;;28.26;44.00;100084.72;4232634;28;20613;-69
2023/09/11 10:15:28;;;;;;;14.30;6.97;;;;;;;28.19;43.05;100081.34;4245441;28;21145;-70
2023/09/11 10:17:55;;;;;;;12.60;7.15;;;;;;;28.45;42.20;100085.03;4230630;28;20554;-69
2023/09/11 10:20:23;;;;;;;18.00;7.33;;;;;;;28.36;43.31;100083.91;4231779;28;21700;-72
2023/09/11 10:22:55;;;;;;;14.77;6.78;;;;;;;28.43;42.61;100070.53;4250621;28;20515;-70
2023/09/11 10:25:22;;;;;;;11.38;6.47;;;;;;;29.12;40.64;100064.75;4247201;28;20307;-71
2023/09/11 10:27:52;;;;;;;15.18;7.40;;;;;;;29.33;40.68;100071.13;4218210;28;20413;-69
2023/09/11 10:30:24;;;;;;;10.73;6.60;;;;;;;28.86;40.88;100065.59;4211969;28;21552;-70
2023/09/11 10:32:59;;;;;;;12.52;6.38;;;;;;;28.68;40.61;100066.13;4247653;28;21259;-71
2023/09/11 10:35:29;;;;;;;12.23;6.13;;;;;;;28.62;41.22;100063.34;4255276;28;21290;-69
2023/09/11 10:37:58;;;;;;;14.80;6.78;;;;;;;28.82;40.39;100060.84;4238320;28;20251;-69
2023/09/11 10:40:30;;;;;;;9.55;6.63;;;;;;;28.79;40.65;100053.88;4212527;28;21719;-68
2023/09/11 10:42:58;;;;;;;13.73;6.18;;;;;;;28.42;40.26;100066.94;4233145;28;20243;-68
2023/09/11 10:45:29;;;;;;;12.40;6.50;;;;;;;28.06;41.47;100054.88;4234358;28;20308;-70
2023/09/11 10:47:56;;;;;;;15.77;7.10;;;;;;;28.59;40.58;100055.53;4229637;28;21628;-72
2023/09/11 10:50:32;;;;;;;13.68;6.38;;;;;;;28.91;40.59;100050.81;4250453;28;20242;-72
2023/09/11 10:52:59;;;;;;;16.50;6.80;;;;;;;28.61;41.88;100060.81;4238711;28;22046;-67
2023/09/11 10:55:25;;;;;;;24.83;6.72;;;;;;;28.43;42.06;100059.41;4234500;28;20301;-69
2023/09/11 10:57:53;;;;;;;8.20;5.90;;;;;;;28.60;40.81;100051.63;4258653;28;20246;-66
2023/09/11 11:00:23;;;;;;;8.27;5.83;;;;;;;28.42;40.95;100046.59;4258732;28;20231;-69
2023/09/11 11:02:52;;;;;;;15.32;5.60;;;;;;;28.67;40.01;100050.53;4230382;28;20388;-68
2023/09/11 11:05:19;;;;;;;10.93;6.60;;;;;;;28.42;41.33;100050.25;4241699;28;21288;-70
2023/09/11 11:07:49;;;;;;;14.93;6.50;;;;;;;28.12;41.66;100043.50;4242095;28;20529;-68
2023/09/11 11:10:16;;;;;;;15.47;7.03;;;;;;;28.50;42.17;100050.81;4251394;28;20251;-67
2023/09/11 11:12:46;;;;;;;18.03;6.77;;;;;;;28.83;41.15;100049.44;4250479;28;22718;-68
2023/09/11 11:15:28;;;;;;;16.48;6.90;;;;;;;28.89;40.97;100041.94;4239643;28;21674;-67
2023/09/11 11:18:15;;;;;;;15.75;6.75;;;;;;;28.78;42.39;100046.63;4259946;28;21278;-70